sensor_id;sensor_type;location;lat;lon;timestamp;pressure;altitude;pressure_sealevel;temperature;humidity
13800;BME280;6971;50.028;9.258;2023-03-11T00:01:58;98119.72;;;0.50;96.92
13800;BME280;6971;50.028;9.258;2023-03-11T00:06:58;98141.44;;;0.46;99.59
13800;BME280;6971;50.028;9.258;2023-03-11T00:11:59;98153.50;;;0.49;100.00
13800;BME280;6971;50.028;9.258;2023-03-11T00:16:59;98161.66;;;0.36;100.00
13800;BME280;6971;50.028;9.258;2023-03-11T00:22:01;98162.06;;;0.24;100.00
13800;BME280;6971;50.028;9.258;2023-03-11T00:27:01;98170.28;;;0.37;100.00
13800;BME280;6971;50.028;9.258;2023-03-11T00:32:03;98189.06;;;0.44;100.00
13800;BME280;6971;50.028;9.258;2023-03-11T00:37:03;98197.84;;;0.39;100.00
13800;BME280;6971;50.028;9.258;2023-03-11T00:42:03;98206.53;;;0.38;100.00
13800;BME280;6971;50.028;9.258;2023-03-11T00:47:04;98211.78;;;0.35;100.00
13800;BME280;6971;50.028;9.258;2023-03-11T00:52:04;98216.06;;;0.38;100.00
13800;BME280;6971;50.028;9.258;2023-03-11T00:57:05;98218.69;;;0.36;100.00
13800;BME280;6971;50.028;9.258;2023-03-11T01:02:05;98223.09;;;0.33;100.00
13800;BME280;6971;50.028;9.258;2023-03-11T01:07:06;98224.81;;;0.34;100.00
13800;BME280;6971;50.028;9.258;2023-03-11T01:12:06;98237.72;;;0.35;100.00
13800;BME280;6971;50.028;9.258;2023-03-11T01:17:06;98240.19;;;0.11;99.96
13800;BME280;6971;50.028;9.258;2023-03-11T01:22:07;98252.75;;;0.24;100.00
13800;BME280;6971;50.028;9.258;2023-03-11T01:27:07;98253.56;;;0.26;100.00
13800;BME280;6971;50.028;9.258;2023-03-11T01:32:09;98266.72;;;0.20;98.75
13800;BME280;6971;50.028;9.258;2023-03-11T01:37:10;98266.00;;;0.15;99.40
13800;BME280;6971;50.028;9.258;2023-03-11T01:42:10;98261.41;;;0.24;98.91
13800;BME280;6971;50.028;9.258;2023-03-11T01:52:11;98252.09;;;0.17;97.66
13800;BME280;6971;50.028;9.258;2023-03-11T01:57:12;98261.25;;;0.29;97.82
13800;BME280;6971;50.028;9.258;2023-03-11T02:02:27;98251.25;;;0.17;98.27
13800;BME280;6971;50.028;9.258;2023-03-11T02:07:29;98267.41;;;0.25;97.72
13800;BME280;6971;50.028;9.258;2023-03-11T02:12:35;98271.81;;;0.23;97.20
13800;BME280;6971;50.028;9.258;2023-03-11T02:17:38;98283.59;;;0.03;97.53
13800;BME280;6971;50.028;9.258;2023-03-11T02:22:40;98286.63;;;0.18;96.69
13800;BME280;6971;50.028;9.258;2023-03-11T02:27:42;98291.47;;;0.00;97.65
13800;BME280;6971;50.028;9.258;2023-03-11T02:32:47;98290.31;;;0.10;97.69
13800;BME280;6971;50.028;9.258;2023-03-11T02:37:50;98296.41;;;0.09;97.54
13800;BME280;6971;50.028;9.258;2023-03-11T02:42:57;98302.56;;;0.05;98.02
13800;BME280;6971;50.028;9.258;2023-03-11T02:47:59;98308.78;;;-0.02;98.68
13800;BME280;6971;50.028;9.258;2023-03-11T02:52:59;98307.81;;;0.02;98.70
13800;BME280;6971;50.028;9.258;2023-03-11T02:58:00;98310.44;;;0.01;99.73
13800;BME280;6971;50.028;9.258;2023-03-11T03:03:01;98314.81;;;0.00;100.00
13800;BME280;6971;50.028;9.258;2023-03-11T03:08:01;98313.38;;;-0.12;100.00
13800;BME280;6971;50.028;9.258;2023-03-11T03:13:02;98321.84;;;-0.05;100.00
13800;BME280;6971;50.028;9.258;2023-03-11T03:18:02;98326.28;;;-0.10;100.00
13800;BME280;6971;50.028;9.258;2023-03-11T03:23:02;98323.09;;;-0.20;100.00
13800;BME280;6971;50.028;9.258;2023-03-11T03:28:03;98333.56;;;-0.23;100.00
13800;BME280;6971;50.028;9.258;2023-03-11T03:33:04;98349.09;;;-0.23;100.00
13800;BME280;6971;50.028;9.258;2023-03-11T03:38:04;98354.97;;;-0.17;100.00
13800;BME280;6971;50.028;9.258;2023-03-11T03:43:05;98362.78;;;-0.18;100.00
13800;BME280;6971;50.028;9.258;2023-03-11T03:48:05;98372.13;;;-0.12;100.00
13800;BME280;6971;50.028;9.258;2023-03-11T03:53:06;98377.19;;;-0.09;100.00
13800;BME280;6971;50.028;9.258;2023-03-11T03:58:06;98383.66;;;-0.24;100.00
13800;BME280;6971;50.028;9.258;2023-03-11T04:03:06;98382.56;;;-0.16;100.00
13800;BME280;6971;50.028;9.258;2023-03-11T04:08:07;98379.84;;;-0.11;100.00
13800;BME280;6971;50.028;9.258;2023-03-11T04:13:07;98377.38;;;-0.16;100.00
13800;BME280;6971;50.028;9.258;2023-03-11T04:18:07;98388.94;;;0.04;100.00
13800;BME280;6971;50.028;9.258;2023-03-11T04:23:08;98392.63;;;-0.05;99.61
13800;BME280;6971;50.028;9.258;2023-03-11T04:28:08;98394.53;;;-0.11;99.54
13800;BME280;6971;50.028;9.258;2023-03-11T04:33:08;98402.91;;;-0.02;98.91
13800;BME280;6971;50.028;9.258;2023-03-11T04:38:09;98402.63;;;0.09;99.69
13800;BME280;6971;50.028;9.258;2023-03-11T04:43:09;98409.56;;;0.07;98.77
13800;BME280;6971;50.028;9.258;2023-03-11T04:48:09;98409.63;;;0.06;99.38
13800;BME280;6971;50.028;9.258;2023-03-11T04:53:10;98417.59;;;-0.02;100.00
13800;BME280;6971;50.028;9.258;2023-03-11T04:58:10;98424.75;;;-0.12;99.92
13800;BME280;6971;50.028;9.258;2023-03-11T05:03:10;98425.63;;;-0.11;100.00
13800;BME280;6971;50.028;9.258;2023-03-11T05:08:11;98433.84;;;-0.29;100.00
13800;BME280;6971;50.028;9.258;2023-03-11T05:13:11;98449.84;;;-0.12;100.00
13800;BME280;6971;50.028;9.258;2023-03-11T05:18:12;98446.97;;;-0.02;100.00
13800;BME280;6971;50.028;9.258;2023-03-11T05:23:12;98449.72;;;-0.09;100.00
13800;BME280;6971;50.028;9.258;2023-03-11T05:28:12;98453.41;;;-0.17;100.00
13800;BME280;6971;50.028;9.258;2023-03-11T05:33:13;98463.59;;;-0.10;100.00
13800;BME280;6971;50.028;9.258;2023-03-11T05:38:13;98470.91;;;-0.27;100.00
13800;BME280;6971;50.028;9.258;2023-03-11T05:43:13;98473.53;;;-0.28;100.00
13800;BME280;6971;50.028;9.258;2023-03-11T05:48:14;98472.25;;;-0.11;100.00
13800;BME280;6971;50.028;9.258;2023-03-11T05:53:14;98476.66;;;-0.15;100.00
13800;BME280;6971;50.028;9.258;2023-03-11T05:58:14;98493.50;;;-0.33;100.00
13800;BME280;6971;50.028;9.258;2023-03-11T06:03:15;98490.97;;;-0.36;100.00
13800;BME280;6971;50.028;9.258;2023-03-11T06:08:16;98493.88;;;-0.49;100.00
13800;BME280;6971;50.028;9.258;2023-03-11T06:13:16;98485.84;;;-0.38;100.00
13800;BME280;6971;50.028;9.258;2023-03-11T06:18:16;98497.97;;;-0.40;100.00
13800;BME280;6971;50.028;9.258;2023-03-11T06:23:17;98505.66;;;-0.35;100.00
13800;BME280;6971;50.028;9.258;2023-03-11T06:28:17;98513.00;;;-0.18;100.00
13800;BME280;6971;50.028;9.258;2023-03-11T06:33:17;98513.44;;;-0.01;100.00
13800;BME280;6971;50.028;9.258;2023-03-11T06:38:18;98526.25;;;0.04;98.05
13800;BME280;6971;50.028;9.258;2023-03-11T06:43:20;98524.59;;;0.02;97.87
13800;BME280;6971;50.028;9.258;2023-03-11T06:48:21;98540.78;;;0.10;96.49
13800;BME280;6971;50.028;9.258;2023-03-11T06:53:21;98543.16;;;0.19;96.16
13800;BME280;6971;50.028;9.258;2023-03-11T06:58:22;98563.19;;;0.12;98.47
13800;BME280;6971;50.028;9.258;2023-03-11T07:03:22;98564.00;;;0.15;99.39
13800;BME280;6971;50.028;9.258;2023-03-11T07:08:23;98576.88;;;0.18;100.00
13800;BME280;6971;50.028;9.258;2023-03-11T07:13:23;98575.31;;;0.45;100.00
13800;BME280;6971;50.028;9.258;2023-03-11T07:18:24;98592.63;;;0.45;97.76
13800;BME280;6971;50.028;9.258;2023-03-11T07:23:24;98601.81;;;0.22;93.82
13800;BME280;6971;50.028;9.258;2023-03-11T07:28:26;98614.66;;;0.28;94.85
13800;BME280;6971;50.028;9.258;2023-03-11T07:33:26;98628.31;;;0.35;93.61
13800;BME280;6971;50.028;9.258;2023-03-11T07:38:27;98629.44;;;0.24;94.17
13800;BME280;6971;50.028;9.258;2023-03-11T07:43:27;98635.16;;;0.37;93.56
13800;BME280;6971;50.028;9.258;2023-03-11T07:48:28;98634.50;;;0.29;92.28
13800;BME280;6971;50.028;9.258;2023-03-11T07:53:28;98641.25;;;0.36;92.21
13800;BME280;6971;50.028;9.258;2023-03-11T07:58:29;98653.81;;;0.52;91.17
13800;BME280;6971;50.028;9.258;2023-03-11T08:03:29;98662.13;;;0.65;89.98
13800;BME280;6971;50.028;9.258;2023-03-11T08:08:30;98664.16;;;0.87;90.07
13800;BME280;6971;50.028;9.258;2023-03-11T08:13:30;98672.13;;;0.79;87.32
13800;BME280;6971;50.028;9.258;2023-03-11T08:18:31;98692.78;;;0.84;85.89
13800;BME280;6971;50.028;9.258;2023-03-11T08:23:32;98702.03;;;1.88;81.77
13800;BME280;6971;50.028;9.258;2023-03-11T08:28:32;98704.47;;;1.64;81.34
13800;BME280;6971;50.028;9.258;2023-03-11T08:33:33;98708.75;;;1.65;81.33
13800;BME280;6971;50.028;9.258;2023-03-11T08:38:33;98713.78;;;1.71;80.48
13800;BME280;6971;50.028;9.258;2023-03-11T08:43:34;98715.47;;;2.02;78.64
13800;BME280;6971;50.028;9.258;2023-03-11T08:48:37;98733.81;;;1.98;78.14
13800;BME280;6971;50.028;9.258;2023-03-11T08:53:38;98739.22;;;1.90;77.29
13800;BME280;6971;50.028;9.258;2023-03-11T08:58:39;98736.31;;;2.01;75.95
13800;BME280;6971;50.028;9.258;2023-03-11T09:03:39;98750.47;;;1.90;74.39
13800;BME280;6971;50.028;9.258;2023-03-11T09:08:41;98745.47;;;1.52;73.75
13800;BME280;6971;50.028;9.258;2023-03-11T09:13:42;98740.28;;;1.21;79.81
13800;BME280;6971;50.028;9.258;2023-03-11T09:18:42;98743.22;;;1.40;79.29
13800;BME280;6971;50.028;9.258;2023-03-11T09:23:43;98745.22;;;1.30;78.42
13800;BME280;6971;50.028;9.258;2023-03-11T09:28:43;98756.28;;;1.37;76.61
13800;BME280;6971;50.028;9.258;2023-03-11T09:33:48;98750.91;;;1.11;77.91
13800;BME280;6971;50.028;9.258;2023-03-11T09:38:51;98760.66;;;1.35;77.27
13800;BME280;6971;50.028;9.258;2023-03-11T09:44:15;98772.97;;;1.91;76.52
13800;BME280;6971;50.028;9.258;2023-03-11T09:55:20;98763.63;;;4.66;64.98
13800;BME280;6971;50.028;9.258;2023-03-11T10:00:22;98750.63;;;4.64;63.95
13800;BME280;6971;50.028;9.258;2023-03-11T10:05:27;98764.19;;;5.77;60.41
13800;BME280;6971;50.028;9.258;2023-03-11T10:10:33;98753.72;;;5.57;61.15
13800;BME280;6971;50.028;9.258;2023-03-11T10:26:03;98765.97;;;2.79;70.95
13800;BME280;6971;50.028;9.258;2023-03-11T10:36:23;98784.53;;;2.11;76.66
13800;BME280;6971;50.028;9.258;2023-03-11T10:41:43;98775.78;;;1.83;76.68
13800;BME280;6971;50.028;9.258;2023-03-11T10:46:46;98780.75;;;1.61;76.49
13800;BME280;6971;50.028;9.258;2023-03-11T10:51:49;98775.19;;;1.42;77.59
13800;BME280;6971;50.028;9.258;2023-03-11T10:56:54;98774.00;;;1.54;75.47
13800;BME280;6971;50.028;9.258;2023-03-11T11:01:59;98774.06;;;1.82;75.71
13800;BME280;6971;50.028;9.258;2023-03-11T11:17:56;98787.34;;;3.42;68.83
13800;BME280;6971;50.028;9.258;2023-03-11T11:22:59;98778.69;;;3.14;69.07
13800;BME280;6971;50.028;9.258;2023-03-11T11:28:14;98790.03;;;3.13;68.27
13800;BME280;6971;50.028;9.258;2023-03-11T11:33:25;98785.13;;;3.04;68.08
13800;BME280;6971;50.028;9.258;2023-03-11T11:38:27;98786.53;;;2.60;60.97
13800;BME280;6971;50.028;9.258;2023-03-11T11:43:54;98778.09;;;5.16;56.25
13800;BME280;6971;50.028;9.258;2023-03-11T11:49:14;98782.72;;;5.91;52.58
13800;BME280;6971;50.028;9.258;2023-03-11T11:54:26;98778.84;;;5.81;52.12
13800;BME280;6971;50.028;9.258;2023-03-11T11:59:29;98781.53;;;4.96;51.46
13800;BME280;6971;50.028;9.258;2023-03-11T12:15:31;98784.84;;;3.88;57.82
13800;BME280;6971;50.028;9.258;2023-03-11T12:20:45;98785.09;;;3.31;59.72
13800;BME280;6971;50.028;9.258;2023-03-11T12:30:57;98786.00;;;3.30;57.74
13800;BME280;6971;50.028;9.258;2023-03-11T12:36:00;98783.44;;;3.03;57.80
13800;BME280;6971;50.028;9.258;2023-03-11T12:41:06;98787.56;;;2.54;60.45
13800;BME280;6971;50.028;9.258;2023-03-11T12:46:11;98784.41;;;2.73;61.67
13800;BME280;6971;50.028;9.258;2023-03-11T12:56:39;98787.16;;;2.40;63.21
13800;BME280;6971;50.028;9.258;2023-03-11T13:01:55;98782.69;;;2.43;62.05
13800;BME280;6971;50.028;9.258;2023-03-11T13:12:37;98799.47;;;2.90;61.70
13800;BME280;6971;50.028;9.258;2023-03-11T13:17:38;98791.16;;;3.57;59.98
13800;BME280;6971;50.028;9.258;2023-03-11T13:23:06;98794.50;;;3.09;61.16
13800;BME280;6971;50.028;9.258;2023-03-11T13:28:16;98809.59;;;3.25;60.12
13800;BME280;6971;50.028;9.258;2023-03-11T13:33:44;98806.69;;;3.07;62.03
13800;BME280;6971;50.028;9.258;2023-03-11T13:44:28;98820.06;;;2.96;60.10
13800;BME280;6971;50.028;9.258;2023-03-11T13:49:53;98837.34;;;3.26;59.93
13800;BME280;6971;50.028;9.258;2023-03-11T13:55:05;98842.31;;;3.07;61.53
13800;BME280;6971;50.028;9.258;2023-03-11T14:00:14;98833.59;;;2.81;61.06
13800;BME280;6971;50.028;9.258;2023-03-11T14:05:21;98846.59;;;2.81;60.48
13800;BME280;6971;50.028;9.258;2023-03-11T14:10:27;98842.41;;;3.04;59.48
13800;BME280;6971;50.028;9.258;2023-03-11T14:15:39;98853.19;;;3.45;59.43
13800;BME280;6971;50.028;9.258;2023-03-11T14:20:45;98851.81;;;3.35;58.09
13800;BME280;6971;50.028;9.258;2023-03-11T14:25:46;98849.72;;;3.46;59.00
13800;BME280;6971;50.028;9.258;2023-03-11T14:30:58;98856.81;;;3.14;57.54
13800;BME280;6971;50.028;9.258;2023-03-11T14:36:02;98862.97;;;3.11;58.89
13800;BME280;6971;50.028;9.258;2023-03-11T14:41:04;98870.00;;;3.09;57.46
13800;BME280;6971;50.028;9.258;2023-03-11T14:46:06;98856.00;;;3.13;59.17
13800;BME280;6971;50.028;9.258;2023-03-11T14:51:14;98859.44;;;3.14;59.43
13800;BME280;6971;50.028;9.258;2023-03-11T14:56:19;98858.78;;;3.07;59.17
13800;BME280;6971;50.028;9.258;2023-03-11T15:01:24;98861.06;;;2.90;59.60
13800;BME280;6971;50.028;9.258;2023-03-11T15:06:27;98838.75;;;2.82;59.58
13800;BME280;6971;50.028;9.258;2023-03-11T15:11:28;98840.75;;;2.74;57.89
13800;BME280;6971;50.028;9.258;2023-03-11T15:16:34;98850.00;;;3.10;58.31
13800;BME280;6971;50.028;9.258;2023-03-11T15:21:35;98839.28;;;2.92;58.20
13800;BME280;6971;50.028;9.258;2023-03-11T15:26:51;98849.00;;;3.14;56.91
13800;BME280;6971;50.028;9.258;2023-03-11T15:31:53;98849.91;;;3.13;56.40
13800;BME280;6971;50.028;9.258;2023-03-11T15:36:58;98855.03;;;2.89;57.01
13800;BME280;6971;50.028;9.258;2023-03-11T15:42:01;98865.16;;;2.98;57.34
13800;BME280;6971;50.028;9.258;2023-03-11T15:47:03;98854.91;;;2.92;56.97
13800;BME280;6971;50.028;9.258;2023-03-11T15:52:03;98867.59;;;2.74;57.88
13800;BME280;6971;50.028;9.258;2023-03-11T15:57:06;98873.09;;;2.65;58.12
13800;BME280;6971;50.028;9.258;2023-03-11T16:02:20;98874.91;;;2.63;58.83
13800;BME280;6971;50.028;9.258;2023-03-11T16:07:21;98885.66;;;2.51;58.88
13800;BME280;6971;50.028;9.258;2023-03-11T16:12:22;98891.72;;;2.51;57.69
13800;BME280;6971;50.028;9.258;2023-03-11T16:17:22;98894.72;;;2.37;59.25
13800;BME280;6971;50.028;9.258;2023-03-11T16:22:31;98901.47;;;2.44;58.96
13800;BME280;6971;50.028;9.258;2023-03-11T16:27:35;98910.97;;;2.76;58.70
13800;BME280;6971;50.028;9.258;2023-03-11T16:32:38;98910.50;;;2.61;60.17
13800;BME280;6971;50.028;9.258;2023-03-11T16:37:39;98914.66;;;2.37;59.88
13800;BME280;6971;50.028;9.258;2023-03-11T16:42:42;98904.06;;;2.44;60.45
13800;BME280;6971;50.028;9.258;2023-03-11T16:47:42;98919.56;;;2.47;60.23
13800;BME280;6971;50.028;9.258;2023-03-11T16:52:43;98922.50;;;2.35;61.08
13800;BME280;6971;50.028;9.258;2023-03-11T16:57:43;98922.63;;;2.32;61.79
13800;BME280;6971;50.028;9.258;2023-03-11T17:02:44;98922.09;;;2.19;61.17
13800;BME280;6971;50.028;9.258;2023-03-11T17:07:45;98930.00;;;2.16;61.49
13800;BME280;6971;50.028;9.258;2023-03-11T17:12:45;98931.63;;;1.87;62.94
13800;BME280;6971;50.028;9.258;2023-03-11T17:17:46;98924.81;;;1.48;65.01
13800;BME280;6971;50.028;9.258;2023-03-11T17:22:46;98932.22;;;1.27;68.79
13800;BME280;6971;50.028;9.258;2023-03-11T17:27:47;98939.22;;;0.85;71.96
13800;BME280;6971;50.028;9.258;2023-03-11T17:32:47;98946.81;;;0.52;71.87
13800;BME280;6971;50.028;9.258;2023-03-11T17:37:48;98946.13;;;0.44;71.75
13800;BME280;6971;50.028;9.258;2023-03-11T17:42:48;98954.31;;;0.22;74.25
13800;BME280;6971;50.028;9.258;2023-03-11T17:47:49;98962.44;;;0.03;76.95
13800;BME280;6971;50.028;9.258;2023-03-11T17:52:49;98967.91;;;-0.11;78.63
13800;BME280;6971;50.028;9.258;2023-03-11T17:57:51;98975.38;;;-0.46;79.07
13800;BME280;6971;50.028;9.258;2023-03-11T18:02:51;98975.84;;;-0.77;79.28
13800;BME280;6971;50.028;9.258;2023-03-11T18:07:51;98980.97;;;-0.74;82.43
13800;BME280;6971;50.028;9.258;2023-03-11T18:12:52;98982.06;;;-0.89;86.84
13800;BME280;6971;50.028;9.258;2023-03-11T18:17:52;98980.66;;;-1.13;91.03
13800;BME280;6971;50.028;9.258;2023-03-11T18:22:55;98980.25;;;-1.48;94.41
13800;BME280;6971;50.028;9.258;2023-03-11T18:27:56;98992.28;;;-1.46;95.88
13800;BME280;6971;50.028;9.258;2023-03-11T18:32:56;98998.44;;;-1.58;98.09
13800;BME280;6971;50.028;9.258;2023-03-11T18:37:57;98999.47;;;-1.73;99.72
13800;BME280;6971;50.028;9.258;2023-03-11T18:42:57;99007.28;;;-1.82;100.00
13800;BME280;6971;50.028;9.258;2023-03-11T18:47:57;99016.97;;;-2.01;100.00
13800;BME280;6971;50.028;9.258;2023-03-11T18:52:58;99018.69;;;-2.02;100.00
13800;BME280;6971;50.028;9.258;2023-03-11T18:57:59;99018.75;;;-2.08;100.00
13800;BME280;6971;50.028;9.258;2023-03-11T19:02:59;99018.97;;;-2.34;100.00
13800;BME280;6971;50.028;9.258;2023-03-11T19:07:59;99018.13;;;-2.35;100.00
13800;BME280;6971;50.028;9.258;2023-03-11T19:13:00;99016.41;;;-2.38;100.00
13800;BME280;6971;50.028;9.258;2023-03-11T19:18:00;99019.91;;;-2.45;100.00
13800;BME280;6971;50.028;9.258;2023-03-11T19:23:00;99026.97;;;-2.70;100.00
13800;BME280;6971;50.028;9.258;2023-03-11T19:28:01;99031.28;;;-2.76;100.00
13800;BME280;6971;50.028;9.258;2023-03-11T19:33:01;99022.66;;;-2.73;100.00
13800;BME280;6971;50.028;9.258;2023-03-11T19:38:02;99019.25;;;-2.73;100.00
13800;BME280;6971;50.028;9.258;2023-03-11T19:43:02;99024.34;;;-2.69;100.00
13800;BME280;6971;50.028;9.258;2023-03-11T19:48:02;99026.13;;;-2.74;100.00
13800;BME280;6971;50.028;9.258;2023-03-11T19:53:02;99027.91;;;-2.85;100.00
13800;BME280;6971;50.028;9.258;2023-03-11T19:58:03;99034.78;;;-2.89;100.00
13800;BME280;6971;50.028;9.258;2023-03-11T20:03:03;99044.31;;;-2.99;100.00
13800;BME280;6971;50.028;9.258;2023-03-11T20:08:05;99043.50;;;-3.15;100.00
13800;BME280;6971;50.028;9.258;2023-03-11T20:13:06;99039.16;;;-3.02;100.00
13800;BME280;6971;50.028;9.258;2023-03-11T20:18:06;99044.31;;;-2.99;100.00
13800;BME280;6971;50.028;9.258;2023-03-11T20:23:07;99046.06;;;-3.07;100.00
13800;BME280;6971;50.028;9.258;2023-03-11T20:28:09;99055.53;;;-3.05;100.00
13800;BME280;6971;50.028;9.258;2023-03-11T20:33:09;99061.56;;;-3.15;100.00
13800;BME280;6971;50.028;9.258;2023-03-11T20:38:09;99065.03;;;-3.19;100.00
13800;BME280;6971;50.028;9.258;2023-03-11T20:43:11;99067.63;;;-3.27;100.00
13800;BME280;6971;50.028;9.258;2023-03-11T20:48:12;99063.38;;;-3.33;100.00
13800;BME280;6971;50.028;9.258;2023-03-11T20:53:12;99064.22;;;-3.43;100.00
13800;BME280;6971;50.028;9.258;2023-03-11T20:58:12;99061.66;;;-3.40;100.00
13800;BME280;6971;50.028;9.258;2023-03-11T21:03:13;99074.53;;;-3.45;100.00
13800;BME280;6971;50.028;9.258;2023-03-11T21:08:13;99067.72;;;-3.50;100.00
13800;BME280;6971;50.028;9.258;2023-03-11T21:13:13;99070.28;;;-3.52;100.00
13800;BME280;6971;50.028;9.258;2023-03-11T21:18:14;99067.72;;;-3.50;100.00
13800;BME280;6971;50.028;9.258;2023-03-11T21:23:14;99078.88;;;-3.58;100.00
13800;BME280;6971;50.028;9.258;2023-03-11T21:28:14;99073.75;;;-3.65;100.00
13800;BME280;6971;50.028;9.258;2023-03-11T21:33:15;99083.22;;;-3.83;100.00
13800;BME280;6971;50.028;9.258;2023-03-11T21:38:16;99082.34;;;-3.79;100.00
13800;BME280;6971;50.028;9.258;2023-03-11T21:43:17;99083.19;;;-3.78;100.00
13800;BME280;6971;50.028;9.258;2023-03-11T21:48:18;99081.50;;;-3.89;100.00
13800;BME280;6971;50.028;9.258;2023-03-11T21:53:18;99072.03;;;-3.87;100.00
13800;BME280;6971;50.028;9.258;2023-03-11T21:58:21;99086.63;;;-3.94;100.00
13800;BME280;6971;50.028;9.258;2023-03-11T22:03:21;99087.50;;;-4.04;100.00
13800;BME280;6971;50.028;9.258;2023-03-11T22:08:21;99092.66;;;-4.07;100.00
13800;BME280;6971;50.028;9.258;2023-03-11T22:13:22;99090.06;;;-4.09;100.00
13800;BME280;6971;50.028;9.258;2023-03-11T22:18:23;99085.78;;;-4.07;100.00
13800;BME280;6971;50.028;9.258;2023-03-11T22:23:23;99088.38;;;-4.16;100.00
13800;BME280;6971;50.028;9.258;2023-03-11T22:28:23;99084.06;;;-4.20;100.00
13800;BME280;6971;50.028;9.258;2023-03-11T22:33:24;99092.66;;;-4.21;100.00
13800;BME280;6971;50.028;9.258;2023-03-11T22:38:25;99098.66;;;-4.28;100.00
13800;BME280;6971;50.028;9.258;2023-03-11T22:43:25;99095.19;;;-4.37;100.00
13800;BME280;6971;50.028;9.258;2023-03-11T22:48:26;99086.63;;;-4.31;100.00
13800;BME280;6971;50.028;9.258;2023-03-11T22:53:28;99091.75;;;-4.37;100.00
13800;BME280;6971;50.028;9.258;2023-03-11T22:58:28;99100.34;;;-4.44;100.00
13800;BME280;6971;50.028;9.258;2023-03-11T23:03:30;99103.72;;;-4.63;100.00
13800;BME280;6971;50.028;9.258;2023-03-11T23:08:31;99108.03;;;-4.57;100.00
13800;BME280;6971;50.028;9.258;2023-03-11T23:13:32;99104.59;;;-4.64;100.00
13800;BME280;6971;50.028;9.258;2023-03-11T23:18:35;99114.88;;;-4.64;100.00
13800;BME280;6971;50.028;9.258;2023-03-11T23:23:36;99108.84;;;-4.74;100.00
13800;BME280;6971;50.028;9.258;2023-03-11T23:28:37;99104.56;;;-4.67;100.00
13800;BME280;6971;50.028;9.258;2023-03-11T23:33:40;99108.03;;;-4.59;100.00
13800;BME280;6971;50.028;9.258;2023-03-11T23:38:40;99101.97;;;-4.68;100.00
13800;BME280;6971;50.028;9.258;2023-03-11T23:43:41;99099.41;;;-4.68;100.00
13800;BME280;6971;50.028;9.258;2023-03-11T23:48:41;99102.00;;;-4.70;100.00
13800;BME280;6971;50.028;9.258;2023-03-11T23:53:42;99109.69;;;-4.82;100.00
13800;BME280;6971;50.028;9.258;2023-03-11T23:58:43;99122.53;;;-4.79;100.00
